Time;durP1;ratioP1;P1;durP2;ratioP2;P2;SDS_P1;SDS_P2;PMS_P1;PMS_P2;Temp;Humidity;BMP_temperature;BMP_pressure;BME280_temperature;BME280_humidity;BME280_pressure;Samples;Min_cycle;Max_cycle;Signal;HPM_P1;HPM_P2
2021/12/11 00:00:59;;;;;;;;;;;;;;;4.59;75.79;99099.72;5031111;28;19917;-80
2021/12/11 00:03:27;;;;;;;;;;;;;;;4.55;75.32;99101.44;5047090;28;19913;-79
2021/12/11 00:05:56;;;;;;;;;;;;;;;4.51;75.34;99094.50;5036873;28;19920;-79
2021/12/11 00:08:24;;;;;;;;;;;;;;;4.57;75.17;99110.16;5043149;28;19943;-81
2021/12/11 00:10:52;;;;;;;;;;;;;;;4.56;75.04;99118.84;5046944;28;19916;-79
2021/12/11 00:13:21;;;;;;;;;;;;;;;4.43;75.42;99125.84;5041776;28;20012;-80
2021/12/11 00:15:47;;;;;;;;;;;;;;;4.39;75.86;99125.81;5039276;28;19966;-79
2021/12/11 00:18:17;;;;;;;;;;;;;;;4.41;75.97;99144.97;5026997;28;19924;-80
2021/12/11 00:20:54;;;;;;;;;;;;;;;4.27;76.05;99144.94;5037435;28;20723;-79
2021/12/11 00:23:22;;;;;;;;;;;;;;;4.36;76.24;99162.38;5027179;28;19917;-80
2021/12/11 00:25:47;;;;;;;;;;;;;;;4.40;76.47;99164.09;5027116;28;19924;-81
2021/12/11 00:28:13;;;;;;;;;;;;;;;4.32;76.43;99160.63;5028108;28;19917;-79
2021/12/11 00:30:41;;;;;;;;;;;;;;;4.37;76.38;99156.28;5046925;28;19916;-79
2021/12/11 00:33:10;;;;;;;;;;;;;;;4.55;75.63;99156.28;5040412;28;20012;-79
2021/12/11 00:35:35;;;;;;;;;;;;;;;4.32;75.71;99155.41;5026956;28;19917;-79
2021/12/11 00:38:06;;;;;;;;;;;;;;;4.04;76.53;99166.63;5026944;28;19923;-80
2021/12/11 00:40:32;;;;;;;;;;;;;;;4.11;77.13;99167.56;5026803;28;19925;-80
2021/12/11 00:43:01;;;;;;;;;;;;;;;4.21;76.28;99171.06;5026717;28;19924;-79
2021/12/11 00:45:29;;;;;;;;;;;;;;;4.19;76.55;99163.22;5029839;28;19960;-79
2021/12/11 00:47:56;;;;;;;;;;;;;;;4.13;76.43;99158.84;5030571;28;19917;-80
2021/12/11 00:50:25;;;;;;;;;;;;;;;4.22;76.43;99168.44;5049341;28;19927;-79
2021/12/11 00:52:55;;;;;;;;;;;;;;;3.93;76.94;99168.34;5044435;28;19928;-79
2021/12/11 00:55:25;;;;;;;;;;;;;;;3.93;77.78;99170.97;5062658;28;19923;-79
2021/12/11 00:58:02;;;;;;;;;;;;;;;3.91;77.73;99162.28;5028862;28;19924;-79
2021/12/11 01:00:27;;;;;;;;;;;;;;;3.94;77.14;99165.75;5030147;28;20023;-80
2021/12/11 01:02:53;;;;;;;;;;;;;;;3.42;78.01;99167.28;5029212;28;20020;-79
2021/12/11 01:05:19;;;;;;;;;;;;;;;3.44;79.73;99149.88;5029713;28;19917;-79
2021/12/11 01:07:44;;;;;;;;;;;;;;;3.54;80.10;99131.69;5029818;28;19921;-79
2021/12/11 01:10:22;;;;;;;;;;;;;;;3.78;79.82;99132.63;5030930;28;19963;-79
2021/12/11 01:12:55;;;;;;;;;;;;;;;3.94;79.23;99125.75;5043798;28;19948;-80
2021/12/11 01:15:22;;;;;;;;;;;;;;;3.75;79.38;99114.34;5046576;28;19946;-80
2021/12/11 01:18:21;;;;;;;;;;;;;;;3.64;80.08;99114.31;5045984;28;20726;-79
2021/12/11 01:20:59;;;;;;;;;;;;;;;3.53;81.35;99132.53;5029762;28;20149;-80
2021/12/11 01:25:58;;;;;;;;;;;;;;;4.01;80.49;99155.34;5048641;28;20042;-81
2021/12/11 01:28:23;;;;;;;;;;;;;;;4.10;79.90;99152.75;5047569;28;20011;-80
2021/12/11 01:30:49;;;;;;;;;;;;;;;4.13;79.50;99151.00;5029760;28;19990;-81
2021/12/11 01:33:14;;;;;;;;;;;;;;;4.05;79.75;99155.34;5029943;28;19920;-81
2021/12/11 01:35:40;;;;;;;;;;;;;;;3.89;79.02;99143.09;5045355;28;19921;-80
2021/12/11 01:38:13;;;;;;;;;;;;;;;3.72;78.81;99141.34;5049449;28;19913;-81
2021/12/11 01:40:39;;;;;;;;;;;;;;;3.81;78.46;99139.59;5029677;28;19974;-80
2021/12/11 01:43:05;;;;;;;;;;;;;;;3.96;78.26;99136.19;5029660;28;19999;-80
2021/12/11 01:45:31;;;;;;;;;;;;;;;3.94;78.39;99136.19;5029768;28;19928;-81
2021/12/11 01:47:57;;;;;;;;;;;;;;;4.01;77.64;99137.94;5029020;28;19921;-81
2021/12/11 01:50:22;;;;;;;;;;;;;;;4.04;78.18;99135.31;5029548;28;20375;-81
2021/12/11 01:52:50;;;;;;;;;;;;;;;4.00;78.26;99130.09;5029070;28;20446;-81
2021/12/11 01:55:20;;;;;;;;;;;;;;;4.12;78.10;99132.72;5037258;28;19924;-80
2021/12/11 01:57:50;;;;;;;;;;;;;;;4.22;77.76;99136.25;5045957;28;20452;-80
2021/12/11 02:00:24;;;;;;;;;;;;;;;4.28;77.78;99131.03;5049066;28;19917;-80
2021/12/11 02:02:51;;;;;;;;;;;;;;;4.23;78.02;99120.59;5049310;28;19917;-81
2021/12/11 02:05:20;;;;;;;;;;;;;;;4.38;77.70;99116.25;5043094;28;20363;-80
2021/12/11 02:07:49;;;;;;;;;;;;;;;4.45;76.59;99121.47;5043590;28;20409;-80
2021/12/11 02:10:35;;;;;;;;;;;;;;;3.74;79.16;99121.31;5048743;28;20398;-82
2021/12/11 02:13:01;;;;;;;;;;;;;;;3.97;78.50;99133.59;5048228;28;19924;-82
2021/12/11 02:15:33;;;;;;;;;;;;;;;3.96;78.84;99128.38;5042413;28;19913;-80
2021/12/11 02:18:12;;;;;;;;;;;;;;;4.02;78.53;99131.00;5039916;28;19924;-80
2021/12/11 02:20:41;;;;;;;;;;;;;;;3.92;78.18;99124.84;5028524;28;19917;-80
2021/12/11 02:23:07;;;;;;;;;;;;;;;3.62;79.31;99134.31;5027227;28;19921;-80
2021/12/11 02:25:35;;;;;;;;;;;;;;;3.85;78.88;99136.16;5034346;28;19912;-81
2021/12/11 02:28:05;;;;;;;;;;;;;;;4.08;77.71;99150.13;5049024;28;20395;-80
2021/12/11 02:30:31;;;;;;;;;;;;;;;4.08;77.85;99137.09;5044985;28;19921;-80
2021/12/11 02:33:10;;;;;;;;;;;;;;;3.66;78.83;99125.66;5027608;28;19978;-80
2021/12/11 02:35:51;;;;;;;;;;;;;;;3.36;81.58;99129.84;5034313;28;19966;-81
2021/12/11 02:38:23;;;;;;;;;;;;;;;3.63;81.05;99115.22;5047141;28;20302;-80
2021/12/11 02:40:54;;;;;;;;;;;;;;;4.16;79.68;99115.34;5041958;28;19913;-80
2021/12/11 02:43:20;;;;;;;;;;;;;;;4.36;78.52;99108.41;5028163;28;19916;-80
2021/12/11 02:45:48;;;;;;;;;;;;;;;4.16;78.31;99087.50;5034684;28;20563;-80
2021/12/11 02:48:16;;;;;;;;;;;;;;;3.84;79.29;99088.28;5047924;28;19921;-81
2021/12/11 02:50:50;;;;;;;;;;;;;;;3.70;79.67;99088.25;5035887;28;19923;-80
2021/12/11 02:53:27;;;;;;;;;;;;;;;4.05;78.72;99113.59;5027730;28;20032;-81
2021/12/11 02:55:56;;;;;;;;;;;;;;;4.24;77.93;99118.84;5026808;28;19917;-81
2021/12/11 02:58:24;;;;;;;;;;;;;;;4.23;77.37;99111.88;5027716;28;20012;-81
2021/12/11 03:01:03;;;;;;;;;;;;;;;4.18;77.12;99126.66;5032502;28;20390;-81
2021/12/11 03:03:32;;;;;;;;;;;;;;;4.16;76.70;99118.81;5047598;28;19917;-81
2021/12/11 03:06:10;;;;;;;;;;;;;;;4.03;76.72;99110.13;5048095;28;19917;-81
2021/12/11 03:08:36;;;;;;;;;;;;;;;3.51;78.80;99113.41;5031484;28;20331;-81
2021/12/11 03:11:06;;;;;;;;;;;;;;;3.43;80.22;99116.84;5035911;28;19917;-80
2021/12/11 03:13:34;;;;;;;;;;;;;;;3.71;79.81;99123.94;5046445;28;20438;-81
2021/12/11 03:16:00;;;;;;;;;;;;;;;3.47;80.21;99116.88;5041533;28;20399;-80
2021/12/11 03:18:25;;;;;;;;;;;;;;;3.57;79.37;99104.75;5027758;28;19920;-80
2021/12/11 03:20:51;;;;;;;;;;;;;;;3.76;78.98;99097.84;5033166;28;19920;-80
2021/12/11 03:23:17;;;;;;;;;;;;;;;3.33;80.11;99087.25;5047388;28;19917;-82
2021/12/11 03:25:44;;;;;;;;;;;;;;;3.28;81.35;99091.59;5032164;28;19921;-80
2021/12/11 03:28:10;;;;;;;;;;;;;;;3.59;81.35;99085.63;5027459;28;19921;-81
2021/12/11 03:30:38;;;;;;;;;;;;;;;3.73;80.17;99079.59;5033504;28;19953;-81
2021/12/11 03:33:05;;;;;;;;;;;;;;;3.90;79.95;99071.78;5047725;28;20036;-81
2021/12/11 03:35:31;;;;;;;;;;;;;;;3.86;79.59;99083.97;5046532;28;20436;-80
2021/12/11 03:37:57;;;;;;;;;;;;;;;3.94;78.43;99086.59;5046233;28;19970;-80
2021/12/11 03:40:22;;;;;;;;;;;;;;;3.92;78.40;99073.56;5026822;28;19975;-80
2021/12/11 03:42:48;;;;;;;;;;;;;;;4.02;77.95;99091.84;5026587;28;19912;-80
2021/12/11 03:45:16;;;;;;;;;;;;;;;3.73;78.32;99100.44;5027124;28;19949;-81
2021/12/11 03:47:44;;;;;;;;;;;;;;;3.70;78.63;99098.69;5027252;28;19917;-80
2021/12/11 03:50:12;;;;;;;;;;;;;;;3.82;78.08;99102.22;5042764;28;19916;-80
2021/12/11 03:52:38;;;;;;;;;;;;;;;3.77;77.91;99112.66;5026168;28;19913;-80
2021/12/11 03:55:04;;;;;;;;;;;;;;;3.73;77.64;99096.09;5027614;28;19920;-81
2021/12/11 03:57:30;;;;;;;;;;;;;;;3.43;79.22;99115.13;5027168;28;20008;-80
2021/12/11 03:59:55;;;;;;;;;;;;;;;3.46;79.37;99133.41;5043758;28;19978;-81
2021/12/11 04:02:26;;;;;;;;;;;;;;;3.75;78.70;99137.84;5026519;28;19917;-81
2021/12/11 04:04:57;;;;;;;;;;;;;;;3.72;78.74;99136.13;5027199;28;19913;-81
2021/12/11 04:07:24;;;;;;;;;;;;;;;3.66;78.63;99125.66;5026131;28;19928;-81
2021/12/11 04:09:49;;;;;;;;;;;;;;;3.68;78.53;99134.34;5026672;28;19928;-80
2021/12/11 04:12:16;;;;;;;;;;;;;;;3.82;78.37;99133.53;5027343;28;20338;-80
2021/12/11 04:14:42;;;;;;;;;;;;;;;3.98;77.65;99137.06;5026093;28;19913;-79
2021/12/11 04:17:09;;;;;;;;;;;;;;;3.30;79.62;99145.47;5027196;28;20028;-80
2021/12/11 04:19:34;;;;;;;;;;;;;;;3.26;80.55;99141.13;5028441;28;19921;-80
2021/12/11 04:22:00;;;;;;;;;;;;;;;2.79;83.57;99128.63;5030709;28;19921;-79
2021/12/11 04:24:28;;;;;;;;;;;;;;;3.26;82.44;99125.47;5029788;28;20035;-80
2021/12/11 04:26:54;;;;;;;;;;;;;;;3.50;81.15;99105.59;5030656;28;19916;-81
2021/12/11 04:29:20;;;;;;;;;;;;;;;3.60;81.14;99102.16;5045482;28;20411;-80
2021/12/11 04:31:47;;;;;;;;;;;;;;;3.79;79.88;99097.00;5034419;28;19960;-80
2021/12/11 04:34:13;;;;;;;;;;;;;;;3.85;79.60;99100.50;5030515;28;19917;-80
2021/12/11 04:36:41;;;;;;;;;;;;;;;3.89;78.89;99111.78;5029827;28;19913;-80
2021/12/11 04:39:08;;;;;;;;;;;;;;;3.81;79.32;99106.56;5030889;28;19921;-80
2021/12/11 04:41:42;;;;;;;;;;;;;;;3.97;79.06;99104.88;5035800;28;20012;-81
2021/12/11 04:44:15;;;;;;;;;;;;;;;3.99;78.63;99097.91;5030604;28;19936;-80
2021/12/11 04:46:40;;;;;;;;;;;;;;;3.58;79.67;99083.91;5029414;28;19967;-81
2021/12/11 04:49:17;;;;;;;;;;;;;;;3.67;78.87;99075.22;5029979;28;19913;-80
2021/12/11 04:51:55;;;;;;;;;;;;;;;3.59;79.58;99072.56;5030630;28;19975;-80
2021/12/11 05:00:11;;;;;;;;;;;;;;;3.21;81.95;99062.00;5066998;28;19920;-80
2021/12/11 05:10:43;;;;;;;;;;;;;;;3.58;80.95;99089.09;5039477;28;19987;-82
2021/12/11 05:13:08;;;;;;;;;;;;;;;3.22;81.70;99074.19;5029387;28;19924;-81
2021/12/11 05:15:36;;;;;;;;;;;;;;;3.27;82.11;99051.59;5031837;28;19921;-80
2021/12/11 05:18:03;;;;;;;;;;;;;;;3.26;82.14;99047.25;5037745;28;19921;-80
2021/12/11 05:20:30;;;;;;;;;;;;;;;3.29;82.22;99047.28;5033756;28;19979;-80
2021/12/11 05:22:55;;;;;;;;;;;;;;;3.49;81.90;99049.06;5030054;28;19956;-79
2021/12/11 05:25:21;;;;;;;;;;;;;;;3.39;82.35;99043.81;5030046;28;19963;-81
2021/12/11 05:27:46;;;;;;;;;;;;;;;3.30;82.81;99054.22;5041730;28;19924;-78
2021/12/11 05:30:16;;;;;;;;;;;;;;;3.51;82.79;99047.34;5048307;28;20382;-79
2021/12/11 05:32:42;;;;;;;;;;;;;;;3.72;82.05;99041.31;5040217;28;19928;-79
2021/12/11 05:35:08;;;;;;;;;;;;;;;3.69;80.94;99049.13;5029526;28;19913;-80
2021/12/11 05:37:33;;;;;;;;;;;;;;;3.54;80.75;99069.09;5028171;28;20320;-79
2021/12/11 05:39:59;;;;;;;;;;;;;;;3.13;82.42;99076.72;5029647;28;19921;-79
2021/12/11 05:42:24;;;;;;;;;;;;;;;3.43;81.58;99064.69;5028459;28;20437;-79
2021/12/11 05:44:50;;;;;;;;;;;;;;;3.62;80.70;99076.09;5029169;28;20377;-80
2021/12/11 05:47:16;;;;;;;;;;;;;;;3.28;81.49;99060.31;5028698;28;19924;-80
2021/12/11 05:49:44;;;;;;;;;;;;;;;3.42;81.10;99073.41;5028714;28;19931;-79
2021/12/11 05:52:11;;;;;;;;;;;;;;;3.66;81.02;99083.91;5028024;28;19917;-79
2021/12/11 05:54:37;;;;;;;;;;;;;;;3.58;80.47;99083.00;5028968;28;19917;-79
2021/12/11 05:57:06;;;;;;;;;;;;;;;3.88;79.19;99068.31;5049135;28;19913;-79
2021/12/11 05:59:31;;;;;;;;;;;;;;;3.93;79.44;99077.03;5047779;28;20643;-79
2021/12/11 06:01:59;;;;;;;;;;;;;;;3.93;78.91;99057.00;5048044;28;19925;-78
2021/12/11 06:04:26;;;;;;;;;;;;;;;3.85;78.62;99058.75;5048869;28;19924;-80
2021/12/11 06:06:53;;;;;;;;;;;;;;;3.94;79.05;99057.91;5048827;28;19920;-80
2021/12/11 06:09:20;;;;;;;;;;;;;;;3.82;79.47;99052.66;5048734;28;19916;-79
2021/12/11 06:11:47;;;;;;;;;;;;;;;3.90;80.07;99045.69;5033463;28;19921;-79
2021/12/11 06:14:12;;;;;;;;;;;;;;;3.92;80.17;99054.38;5047932;28;19917;-78
2021/12/11 06:16:38;;;;;;;;;;;;;;;4.09;79.66;99068.34;5048372;28;19917;-79
2021/12/11 06:19:05;;;;;;;;;;;;;;;3.83;81.57;99067.41;5047960;28;19921;-78
2021/12/11 06:21:34;;;;;;;;;;;;;;;3.84;79.90;99061.34;5047776;28;20616;-80
2021/12/11 06:24:00;;;;;;;;;;;;;;;3.85;81.40;99066.56;5046926;28;19967;-78
2021/12/11 06:26:26;;;;;;;;;;;;;;;4.26;80.92;99072.69;5034003;28;20387;-78
2021/12/11 06:28:51;;;;;;;;;;;;;;;4.49;79.85;99062.25;5047966;28;19912;-78
2021/12/11 06:31:19;;;;;;;;;;;;;;;4.50;79.06;99055.31;5047814;28;19924;-80
2021/12/11 06:33:46;;;;;;;;;;;;;;;4.51;78.71;99057.91;5047616;28;19917;-79
2021/12/11 06:36:13;;;;;;;;;;;;;;;4.56;79.73;99060.53;5043526;28;20417;-79
2021/12/11 06:38:39;;;;;;;;;;;;;;;4.54;80.05;99057.91;5026479;28;20276;-79
2021/12/11 06:41:06;;;;;;;;;;;;;;;4.77;79.38;99057.00;5027485;28;19924;-80
2021/12/11 06:43:31;;;;;;;;;;;;;;;5.01;79.42;99051.72;5027267;28;19963;-79
2021/12/11 06:45:57;;;;;;;;;;;;;;;5.22;78.77;99044.69;5027500;28;19925;-79
2021/12/11 06:48:23;;;;;;;;;;;;;;;5.52;78.17;99045.44;5027159;28;19917;-79
2021/12/11 06:50:49;;;;;;;;;;;;;;;5.55;78.03;99045.41;5027675;28;19917;-81
2021/12/11 06:53:21;;;;;;;;;;;;;;;5.75;76.96;99047.94;5027625;28;19924;-81
2021/12/11 06:55:47;;;;;;;;;;;;;;;4.98;80.07;99064.78;5025159;28;20565;-82
2021/12/11 06:58:12;;;;;;;;;;;;;;;5.12;80.02;99074.34;5027634;28;19917;-80
2021/12/11 07:00:37;;;;;;;;;;;;;;;4.94;80.32;99065.69;5026249;28;20434;-81
2021/12/11 07:03:03;;;;;;;;;;;;;;;5.26;79.85;99051.63;5027458;28;20003;-80
2021/12/11 07:05:28;;;;;;;;;;;;;;;5.36;79.38;99048.13;5027055;28;20314;-79
2021/12/11 07:07:54;;;;;;;;;;;;;;;5.62;78.36;99038.41;5027488;28;20425;-80
2021/12/11 07:10:20;;;;;;;;;;;;;;;5.86;77.73;99042.63;5026381;28;20315;-78
2021/12/11 07:12:46;;;;;;;;;;;;;;;6.30;77.09;99057.16;5027634;28;19990;-81
2021/12/11 07:15:12;;;;;;;;;;;;;;;6.52;76.74;99049.13;5026105;28;20418;-79
2021/12/11 07:17:37;;;;;;;;;;;;;;;6.65;75.33;99044.66;5027356;28;20004;-79
2021/12/11 07:20:04;;;;;;;;;;;;;;;6.76;74.83;99048.91;5027563;28;19917;-79
2021/12/11 07:22:29;;;;;;;;;;;;;;;6.82;76.01;99061.94;5027305;28;19917;-77
2021/12/11 07:25:00;;;;;;;;;;;;;;;7.00;75.11;99052.19;5026865;28;19917;-79
2021/12/11 07:27:26;;;;;;;;;;;;;;;7.15;73.47;99048.50;5026848;28;19917;-79
2021/12/11 07:29:51;;;;;;;;;;;;;;;6.87;74.27;99051.41;5027074;28;19913;-78
2021/12/11 07:32:17;;;;;;;;;;;;;;;6.85;74.02;99044.47;5026962;28;19960;-80
2021/12/11 07:34:42;;;;;;;;;;;;;;;6.49;76.03;99046.53;5027235;28;19920;-78
2021/12/11 07:37:08;;;;;;;;;;;;;;;6.42;77.28;99043.13;5026951;28;19917;-81
2021/12/11 07:39:34;;;;;;;;;;;;;;;6.39;76.68;99035.28;5026468;28;19928;-80
2021/12/11 07:42:00;;;;;;;;;;;;;;;6.62;76.50;99037.69;5025832;28;19917;-82
2021/12/11 07:44:26;;;;;;;;;;;;;;;6.78;76.45;99027.91;5026449;28;19948;-83
2021/12/11 07:46:52;;;;;;;;;;;;;;;7.07;76.17;99027.59;5026807;28;19963;-83
2021/12/11 07:49:18;;;;;;;;;;;;;;;6.95;77.03;99025.13;5027159;28;19920;-83
2021/12/11 07:51:43;;;;;;;;;;;;;;;7.14;75.21;99013.53;5026744;28;19913;-80
2021/12/11 07:54:09;;;;;;;;;;;;;;;7.28;75.32;99013.38;5028744;28;20024;-80
2021/12/11 07:56:35;;;;;;;;;;;;;;;7.28;74.90;98995.00;5031655;28;19926;-83
2021/12/11 07:59:03;;;;;;;;;;;;;;;7.43;75.16;98999.19;5031298;28;20307;-81
2021/12/11 08:01:29;;;;;;;;;;;;;;;7.36;75.22;98994.91;5031682;28;19923;-80
2021/12/11 08:03:57;;;;;;;;;;;;;;;7.45;75.25;98986.06;5031641;28;19909;-79
2021/12/11 08:06:23;;;;;;;;;;;;;;;7.26;75.91;98996.78;5030986;28;20364;-79
2021/12/11 08:08:48;;;;;;;;;;;;;;;7.45;75.35;98992.16;5031739;28;20031;-84
2021/12/11 08:11:17;;;;;;;;;;;;;;;7.54;75.41;98999.06;5030843;28;20020;-81
2021/12/11 08:13:44;;;;;;;;;;;;;;;7.72;74.79;99000.53;5030952;28;19913;-81
2021/12/11 08:16:11;;;;;;;;;;;;;;;7.30;76.51;99002.84;5030002;28;20292;-81
2021/12/11 08:18:36;;;;;;;;;;;;;;;7.42;76.00;99004.47;5030833;28;19919;-81
2021/12/11 08:21:02;;;;;;;;;;;;;;;7.42;76.59;99013.19;5030686;28;20020;-81
2021/12/11 08:23:27;;;;;;;;;;;;;;;7.50;76.27;99007.84;5031287;28;20383;-82
2021/12/11 08:25:54;;;;;;;;;;;;;;;7.68;76.12;99010.22;5030182;28;20452;-81
2021/12/11 08:28:21;;;;;;;;;;;;;;;7.88;75.57;99003.81;5030805;28;19917;-85
2021/12/11 08:30:48;;;;;;;;;;;;;;;7.79;75.27;99014.44;5032559;28;20015;-81
2021/12/11 08:33:14;;;;;;;;;;;;;;;7.69;75.92;99009.34;5043474;28;19921;-83
2021/12/11 08:35:40;;;;;;;;;;;;;;;7.97;75.53;98995.78;5030455;28;19917;-84
2021/12/11 08:38:06;;;;;;;;;;;;;;;7.74;75.65;98987.38;5032062;28;19917;-82
2021/12/11 08:40:33;;;;;;;;;;;;;;;8.17;75.09;98986.72;5031061;28;19925;-83
2021/12/11 08:43:00;;;;;;;;;;;;;;;8.77;74.49;98968.16;5032215;28;20746;-80
2021/12/11 08:45:43;;;;;;;;;;;;;;;8.71;74.96;98973.53;5049912;28;19963;-81
2021/12/11 08:48:08;;;;;;;;;;;;;;;9.20;74.06;98979.56;5047572;28;19912;-81
2021/12/11 08:50:33;;;;;;;;;;;;;;;9.44;72.74;98967.66;5041454;28;19920;-80
2021/12/11 08:52:59;;;;;;;;;;;;;;;9.83;72.25;98959.75;5046700;28;19920;-80
2021/12/11 08:55:28;;;;;;;;;;;;;;;10.21;69.88;98955.31;5030514;28;20280;-80
2021/12/11 08:57:53;;;;;;;;;;;;;;;10.19;70.06;98959.78;5030023;28;19921;-83
2021/12/11 09:00:31;;;;;;;;;;;;;;;10.47;70.78;98959.09;5030783;28;19978;-81
2021/12/11 09:03:05;;;;;;;;;;;;;;;10.50;70.61;98953.75;5030086;28;19959;-80
2021/12/11 09:05:34;;;;;;;;;;;;;;;10.57;70.49;98944.72;5036016;28;19924;-80
2021/12/11 09:08:12;;;;;;;;;;;;;;;10.42;70.41;98955.69;5047778;28;20022;-82
2021/12/11 09:11:04;;;;;;;;;;;;;;;10.52;70.37;98935.25;5048791;28;19920;-81
2021/12/11 09:13:43;;;;;;;;;;;;;;;10.74;70.90;98922.31;5037500;28;19999;-81
2021/12/11 09:16:17;;;;;;;;;;;;;;;10.84;70.44;98917.63;5033441;28;20003;-81
2021/12/11 09:18:48;;;;;;;;;;;;;;;11.02;70.26;98909.19;5042121;28;19982;-84
2021/12/11 09:21:24;;;;;;;;;;;;;;;11.05;70.78;98911.75;5030130;28;19923;-82
2021/12/11 09:23:52;;;;;;;;;;;;;;;11.23;69.19;98901.53;5028602;28;19974;-80
2021/12/11 09:26:26;;;;;;;;;;;;;;;11.42;68.71;98893.94;5028536;28;19956;-80
2021/12/11 09:28:52;;;;;;;;;;;;;;;11.26;69.88;98881.19;5030623;28;19920;-82
2021/12/11 09:31:27;;;;;;;;;;;;;;;11.21;71.08;98879.59;5028098;28;20306;-80
2021/12/11 09:33:57;;;;;;;;;;;;;;;11.16;72.78;98871.81;5030437;28;19928;-82
2021/12/11 09:36:25;;;;;;;;;;;;;;;11.21;73.61;98848.78;5027575;28;19921;-84
2021/12/11 09:38:52;;;;;;;;;;;;;;;10.85;78.52;98848.16;5044079;28;20351;-81
2021/12/11 09:41:20;;;;;;;;;;;;;;;10.84;82.37;98843.75;5048689;28;19920;-84
2021/12/11 09:44:02;;;;;;;;;;;;;;;10.98;83.00;98838.06;5048760;28;19917;-84
2021/12/11 09:46:32;;;;;;;;;;;;;;;11.20;83.71;98831.22;5048737;28;19920;-82
2021/12/11 09:48:58;;;;;;;;;;;;;;;11.27;82.38;98831.91;5033120;28;19960;-84
2021/12/11 09:51:27;;;;;;;;;;;;;;;11.27;82.82;98816.91;5028647;28;20006;-83
2021/12/11 09:53:55;;;;;;;;;;;;;;;11.40;82.97;98821.78;5039859;28;19933;-83
2021/12/11 09:56:25;;;;;;;;;;;;;;;11.26;82.58;98815.19;5031085;28;19928;-81
2021/12/11 09:58:51;;;;;;;;;;;;;;;11.10;82.51;98817.44;5042783;28;20007;-79
2021/12/11 10:01:20;;;;;;;;;;;;;;;11.36;83.41;98812.28;5039333;28;20000;-81
2021/12/11 10:03:57;;;;;;;;;;;;;;;11.18;82.22;98805.78;5028270;28;20666;-82
2021/12/11 10:09:18;;;;;;;;;;;;;;;11.31;82.79;98801.84;5033360;28;19917;-83
2021/12/11 10:12:02;;;;;;;;;;;;;;;11.69;82.96;98785.66;5037144;28;19916;-82
2021/12/11 10:14:36;;;;;;;;;;;;;;;11.74;82.18;98767.84;5044476;28;19920;-84
2021/12/11 10:17:07;;;;;;;;;;;;;;;11.69;82.44;98780.34;5045889;28;19920;-84
2021/12/11 10:19:32;;;;;;;;;;;;;;;11.79;83.64;98779.13;5035009;28;20387;-82
2021/12/11 10:22:04;;;;;;;;;;;;;;;11.89;83.47;98783.16;5039348;28;19967;-85
2021/12/11 10:24:32;;;;;;;;;;;;;;;11.88;83.48;98775.28;5030507;28;19921;-82
2021/12/11 10:26:59;;;;;;;;;;;;;;;11.76;83.30;98758.09;5045420;28;19925;-85
2021/12/11 10:29:24;;;;;;;;;;;;;;;11.79;84.38;98763.28;5048337;28;19924;-83
2021/12/11 10:31:58;;;;;;;;;;;;;;;11.94;84.08;98752.22;5042473;28;20022;-83
2021/12/11 10:34:25;;;;;;;;;;;;;;;11.78;83.45;98737.78;5027866;28;20311;-83
2021/12/11 10:37:10;;;;;;;;;;;;;;;11.92;84.29;98745.22;5026026;28;20347;-83
2021/12/11 10:39:36;;;;;;;;;;;;;;;11.81;84.04;98738.50;5027685;28;19920;-84
2021/12/11 10:42:02;;;;;;;;;;;;;;;11.83;84.73;98744.63;5027460;28;20016;-83
2021/12/11 10:44:37;;;;;;;;;;;;;;;11.83;84.65;98734.06;5027330;28;20819;-83
2021/12/11 10:47:23;;;;;;;;;;;;;;;11.86;84.64;98742.78;5027479;28;19917;-85
2021/12/11 10:49:49;;;;;;;;;;;;;;;11.89;84.08;98740.88;5027438;28;20015;-82
2021/12/11 10:52:17;;;;;;;;;;;;;;;11.69;84.88;98728.38;5031504;28;19927;-85
2021/12/11 10:54:42;;;;;;;;;;;;;;;11.78;85.15;98735.13;5039055;28;20249;-85
2021/12/11 10:57:08;;;;;;;;;;;;;;;11.78;85.12;98729.84;5047342;28;20437;-84
2021/12/11 10:59:36;;;;;;;;;;;;;;;11.76;85.97;98710.56;5038510;28;19927;-86
2021/12/11 11:02:07;;;;;;;;;;;;;;;11.68;86.34;98705.53;5037139;28;19970;-86
2021/12/11 11:04:47;;;;;;;;;;;;;;;11.88;85.59;98696.91;5047923;28;19955;-85
2021/12/11 11:07:12;;;;;;;;;;;;;;;11.83;85.61;98685.63;5041174;28;19920;-86
2021/12/11 11:09:39;;;;;;;;;;;;;;;11.82;86.20;98694.47;5027079;28;20387;-86
2021/12/11 11:12:06;;;;;;;;;;;;;;;11.82;86.20;98679.47;5026845;28;19920;-84
2021/12/11 11:14:32;;;;;;;;;;;;;;;11.96;86.48;98686.94;5026771;28;20410;-85
2021/12/11 11:17:00;;;;;;;;;;;;;;;11.96;86.62;98673.72;5033671;28;19920;-85
2021/12/11 11:19:26;;;;;;;;;;;;;;;11.96;86.33;98665.78;5047286;28;19924;-86
2021/12/11 11:21:57;;;;;;;;;;;;;;;11.89;87.25;98653.69;5041772;28;19979;-86
2021/12/11 11:24:24;;;;;;;;;;;;;;;12.00;86.96;98670.06;5027160;28;19967;-85
2021/12/11 11:26:50;;;;;;;;;;;;;;;12.04;87.08;98673.44;5026233;28;20384;-85
2021/12/11 11:29:17;;;;;;;;;;;;;;;12.06;86.93;98652.22;5042668;28;20008;-86
2021/12/11 11:31:44;;;;;;;;;;;;;;;11.99;86.92;98656.91;5041639;28;20379;-81
2021/12/11 11:34:12;;;;;;;;;;;;;;;12.00;86.23;98643.63;5029476;28;19917;-81
2021/12/11 11:36:37;;;;;;;;;;;;;;;12.06;86.45;98645.16;5032673;28;20394;-81
2021/12/11 11:39:07;;;;;;;;;;;;;;;12.25;85.86;98634.75;5025471;28;19921;-80
2021/12/11 11:41:34;;;;;;;;;;;;;;;12.28;85.95;98624.06;5024932;28;19975;-82
2021/12/11 11:44:00;;;;;;;;;;;;;;;12.28;86.18;98623.19;5026468;28;20319;-80
2021/12/11 11:46:26;;;;;;;;;;;;;;;12.24;85.57;98617.16;5029996;28;19921;-82
2021/12/11 11:48:54;;;;;;;;;;;;;;;12.33;86.13;98619.44;5034615;28;19923;-80
2021/12/11 11:51:26;;;;;;;;;;;;;;;12.36;85.83;98621.13;5036120;28;20003;-80
2021/12/11 11:53:51;;;;;;;;;;;;;;;12.41;86.49;98603.28;5035952;28;19917;-81
2021/12/11 11:56:21;;;;;;;;;;;;;;;12.34;87.35;98596.50;5033568;28;19924;-83
2021/12/11 11:58:47;;;;;;;;;;;;;;;12.38;87.58;98587.53;5031924;28;19916;-83
2021/12/11 12:01:12;;;;;;;;;;;;;;;12.44;87.97;98594.38;5036884;28;19942;-81
2021/12/11 12:03:38;;;;;;;;;;;;;;;12.40;87.55;98574.25;5036246;28;20007;-83
2021/12/11 12:06:06;;;;;;;;;;;;;;;12.38;88.02;98579.59;5027851;28;19924;-81
2021/12/11 12:08:31;;;;;;;;;;;;;;;12.40;87.87;98576.91;5025979;28;20050;-82
2021/12/11 12:10:57;;;;;;;;;;;;;;;12.36;87.89;98578.81;5025828;28;20024;-83
2021/12/11 12:13:25;;;;;;;;;;;;;;;12.31;89.50;98570.19;5033493;28;19920;-83
2021/12/11 12:15:52;;;;;;;;;;;;;;;12.28;89.35;98591.47;5046574;28;19916;-83
2021/12/11 12:18:19;;;;;;;;;;;;;;;12.32;88.54;98582.50;5043871;28;19928;-84
2021/12/11 12:20:45;;;;;;;;;;;;;;;12.33;88.89;98582.44;5025779;28;19917;-83
2021/12/11 12:23:11;;;;;;;;;;;;;;;12.29;89.17;98583.47;5025341;28;19917;-83
2021/12/11 12:25:37;;;;;;;;;;;;;;;12.26;89.25;98566.88;5027937;28;19924;-83
2021/12/11 12:28:03;;;;;;;;;;;;;;;12.31;89.01;98565.78;5002282;28;19917;-84
2021/12/11 12:30:38;;;;;;;;;;;;;;;12.29;89.35;98572.03;5041737;28;19916;-83
2021/12/11 12:33:04;;;;;;;;;;;;;;;12.16;89.73;98556.66;5025588;28;19921;-84
2021/12/11 12:35:30;;;;;;;;;;;;;;;12.16;90.13;98551.38;5025376;28;19920;-83
2021/12/11 12:37:57;;;;;;;;;;;;;;;12.25;89.54;98549.28;5032963;28;20551;-83
2021/12/11 12:40:28;;;;;;;;;;;;;;;12.28;88.90;98530.63;5034580;28;19917;-83
2021/12/11 12:42:57;;;;;;;;;;;;;;;12.31;88.60;98526.13;5038382;28;19920;-84
2021/12/11 12:45:42;;;;;;;;;;;;;;;12.28;89.10;98522.72;5036820;28;19956;-85
2021/12/11 12:48:10;;;;;;;;;;;;;;;12.37;88.37;98530.28;5040203;28;19923;-83
2021/12/11 12:50:42;;;;;;;;;;;;;;;12.40;87.55;98538.06;5033600;28;20401;-83
2021/12/11 12:53:07;;;;;;;;;;;;;;;12.51;86.43;98540.28;5035488;28;19925;-84
2021/12/11 12:55:36;;;;;;;;;;;;;;;12.65;85.28;98545.00;5039194;28;19927;-83
2021/12/11 12:58:11;;;;;;;;;;;;;;;12.69;84.19;98543.97;5038373;28;19925;-83
2021/12/11 13:00:44;;;;;;;;;;;;;;;12.76;83.15;98533.97;5045335;28;19923;-82
2021/12/11 13:03:18;;;;;;;;;;;;;;;12.80;82.76;98531.13;5048498;28;20375;-83
2021/12/11 13:05:46;;;;;;;;;;;;;;;12.86;81.70;98522.91;5048605;28;19931;-83
2021/12/11 13:08:16;;;;;;;;;;;;;;;12.96;81.25;98523.41;5048699;28;19954;-84
2021/12/11 13:10:47;;;;;;;;;;;;;;;13.06;79.73;98513.25;5044249;28;20016;-83
2021/12/11 13:13:15;;;;;;;;;;;;;;;13.17;78.88;98512.78;5029372;28;19921;-83
2021/12/11 13:15:43;;;;;;;;;;;;;;;13.15;79.37;98530.53;5027966;28;20404;-82
2021/12/11 13:18:11;;;;;;;;;;;;;;;13.23;78.85;98534.56;5031586;28;19978;-82